Flight Track Log - Related Links

Times and Time Zones

All times are in EDT time to prevent confusion due to time zone crossing. See the N70AG flight status page for this flight to view local times or setup timezone preferences in your user account.


Time Position Orientation Groundspeed Altitude Reporting Facility
EDT Latitude Longitude Course Direction KTS MPH feet Rate Location/Type
Wed 03:30:28 PM 36.0692 -115.1758 203° Southwest 182 209 3,100  Level Los Angeles Center
Wed 03:31:28 PM 36.0128 -115.2050 203° Southwest 233 268 6,100 2,899 Climbing Los Angeles Center
Wed 03:31:57 PM 35.9867 -115.2100 189° South 227 261 7,400 3,639 Climbing Los Angeles Center
Wed 03:32:29 PM 35.9353 -115.2253 194° South 282 325 9,800 3,387 Climbing Los Angeles Center
Wed 03:32:59 PM 35.9072 -115.2303 188° South 278 320 10,900 2,348 Climbing Los Angeles Center
Wed 03:34:01 PM 35.8128 -115.2564 193° South 313 360 13,400 2,806 Climbing Los Angeles Center
Wed 03:35:03 PM 35.7092 -115.2853 193° South 354 407 16,700 3,435 Climbing Los Angeles Center
Wed 03:36:05 PM 35.5731 -115.2989 185° South 390 449 20,500 3,268 Climbing Los Angeles Center
Wed 03:37:06 PM 35.4539 -115.3011 181° South 412 474 23,400 2,780 Climbing Los Angeles Center
Wed 03:38:08 PM 35.3367 -115.3294 191° South 426 490 26,200 2,226 Climbing Los Angeles Center
Wed 03:39:10 PM 35.2175 -115.3728 197° South 439 505 28,000 871 Climbing Los Angeles Center
Wed 03:40:12 PM 35.1003 -115.4153 197° South 445 512 28,000  Level Los Angeles Center
Wed 03:41:14 PM 34.9758 -115.4561 195° South 451 519 28,000  Level Los Angeles Center
Wed 03:42:16 PM 34.8528 -115.4975 195° South 452 520 28,000  Level Los Angeles Center
Wed 03:43:18 PM 34.7081 -115.5431 195° South 448 516 28,000  Level Los Angeles Center
Wed 03:44:20 PM 34.5842 -115.5894 197° South 467 537 28,000  Level Los Angeles Center
Wed 03:45:22 PM 34.4661 -115.6264 194° South 440 506 28,000  Level Los Angeles Center
Wed 03:46:24 PM 34.3553 -115.6647 196° South 385 443 28,000  Level Los Angeles Center
Wed 03:47:26 PM 34.2531 -115.6978 195° South 379 436 28,000  Level Los Angeles Center
Wed 03:48:28 PM 34.1522 -115.7328 196° South 378 435 28,000  Level Los Angeles Center
Wed 03:49:30 PM 34.0519 -115.7653 195° South 373 429 28,000  Level Los Angeles Center
Wed 03:50:32 PM 33.9514 -115.7986 195° South 375 432 28,000 -532 Level Los Angeles Center
Wed 03:51:34 PM 33.8311 -115.8394 196° South 372 428 26,900 -968 Descending Los Angeles Center
Wed 03:52:36 PM 33.7325 -115.8714 195° South 369 425 26,000 -912 Descending Los Angeles Center
Wed 03:53:39 PM 33.6325 -115.9042 195° South 373 429 25,000 -912 Descending Los Angeles Center
Wed 03:54:41 PM 33.5394 -115.9489 202° Southwest 358 412 24,100 -1,065 Descending Los Angeles Center
Wed 03:55:43 PM 33.4667 -116.0281 222° Southwest 356 410 22,800 -1,500 Descending Los Angeles Center
Wed 03:56:45 PM 33.4139 -116.1197 235° Southwest 340 391 21,000 -1,887 Descending Los Angeles Center
Wed 03:57:47 PM 33.3458 -116.2300 234° Southwest 345 397 18,900 -1,839 Descending Los Angeles Center
Wed 03:58:49 PM 33.2661 -116.2911 213° Southwest 339 390 17,200 -1,742 Descending Los Angeles Center
Wed 03:59:51 PM 33.1811 -116.3414 206° Southwest 343 395 15,300 -1,694 Descending Los Angeles Center
Wed 04:00:53 PM 33.0989 -116.3900 206° Southwest 334 384 13,700 -1,597 Descending Los Angeles Center
Wed 04:01:55 PM 33.0100 -116.4414 206° Southwest 323 372 12,000 -864 Descending Los Angeles Center
Wed 04:02:58 PM 32.9392 -116.4825 206° Southwest 288 331 11,900 -528 Descending Los Angeles Center
Wed 04:04:00 PM 32.8772 -116.5197 207° Southwest 254 292 10,900 -1,065 Descending Los Angeles Center
Wed 04:05:02 PM 32.8183 -116.5617 211° Southwest 243 280 9,700 -1,200 Descending Los Angeles Center
Wed 04:06:05 PM 32.7622 -116.6006 210° Southwest 237 273 8,400 -1,306 Descending Los Angeles Center
Wed 04:07:06 PM 32.6939 -116.6492 211° Southwest 238 274 7,000 -1,122 Descending Los Angeles Center
Wed 04:08:08 PM 32.6481 -116.6936 219° Southwest 223 257 6,100 -532 Descending Los Angeles Center
Wed 04:09:10 PM 32.6397 -116.7578 261° West 200 230 5,900 -48 Descending Los Angeles Center
Wed 04:10:12 PM 32.6431 -116.8214 274° West 195 224 6,000 -425 Climbing Los Angeles Center
Wed 04:11:17 PM 32.6667 -116.9000 290° West 207 238 5,000 -1,056 Descending Southern California TRACON
Wed 04:12:17 PM 32.6833 -116.9667 287° West 208 239 3,800 -1,150 Descending Southern California TRACON
Wed 04:13:17 PM 32.7000 -117.0333 287° West 199 229 2,700 -1,000 Descending Southern California TRACON
Wed 04:14:17 PM 32.7000 -117.0833 270° West 180 207 1,800 -810 Descending Southern California TRACON
Wed 04:15:23 PM 32.7200 -117.1331 296° West 152 175 1,000 -703 Descending Los Angeles Center
Wed 04:16:25 PM 32.7300 -117.1764 285° West 134 154 300 -677 Descending Los Angeles Center
Wed 04:18:00 PM 32.7333 -117.1833 281° West  Level FlightAware Approximate

Login

Don't have an account? Register now (free) for customized features, flight alerts, and more!